Terminal Aerodrome Forecast
Issued by NWS Greer, SC

Current Version | Previous Version | Text Only | Print | Product List | Glossary On
Versions: 1 2 3 4 5 6 7 8 9 10 11 12 13 14 15 16 17 18 19 20 21 22 23 24 25 26 27 28 29 30 31 32 33 34 35 36 37 38 39 40 41 42 43 44 45 46 47 48 49 50
000
FTUS42 KGSP 211300 AAA
TAFAVL
TAF AMD
KAVL 211355Z 2114/2212 00000KT P6SM SCT002
      TEMPO 2114/2115 5SM BR BKN002
     FM211500 34006KT P6SM SCT250
     FM211600 34007G14KT P6SM SCT045
     FM212100 32008KT P6SM BKN045
     FM220400 32006KT P6SM BKN045
     FM220600 33009KT P6SM BKN028=

USA.gov is the U.S. government's official web portal to all federal, state and local government web resources and services.